Terminal Aerodrome Forecast
Issued by NWS Wilmington, OH

Current Version | Previous Version | Graphics & Text | Print | Product List | Glossary On
Versions: 1 2 3 4 5 6 7 8 9 10 11 12 13 14 15 16 17 18 19 20 21 22 23 24 25 26 27 28 29
000
FTUS41 KILN 301749
TAFILN
TAF
KILN 301749Z 3018/0118 VRB04KT P6SM VCSH FEW008 BKN015
     FM302200 15003KT P6SM BKN030
     FM010600 00000KT 4SM BR BKN040
     FM011100 VRB03KT 5SM BR BKN020
      TEMPO 0111/0114 2SM BR BKN010
     FM011600 18005KT P6SM VCSH BKN025=

USA.gov is the U.S. government's official web portal to all federal, state and local government web resources and services.